Time;durP1;ratioP1;P1;durP2;ratioP2;P2;SDS_P1;SDS_P2;PMS_P1;PMS_P2;Temp;Humidity;BMP_temperature;BMP_pressure;BME280_temperature;BME280_humidity;BME280_pressure;Samples;Min_cycle;Max_cycle;Signal;HPM_P1;HPM_P2
2022/03/23 00:01:26;;;;;;;32.95;19.77;;;7.10;62.10;;;;;;5023666;28;20025;-78
2022/03/23 00:03:52;;;;;;;36.75;20.77;;;7.00;62.30;;;;;;5032352;28;20033;-76
2022/03/23 00:06:18;;;;;;;40.97;18.85;;;7.00;62.40;;;;;;5016527;28;20053;-75
2022/03/23 00:08:45;;;;;;;28.25;17.63;;;6.90;62.50;;;;;;5011550;28;20412;-73
2022/03/23 00:11:11;;;;;;;33.40;18.30;;;6.90;62.40;;;;;;4998330;28;20498;-74
2022/03/23 00:13:38;;;;;;;33.03;19.08;;;6.90;62.30;;;;;;5016140;28;20053;-74
2022/03/23 00:16:05;;;;;;;33.00;19.52;;;6.90;62.60;;;;;;5011749;28;20033;-72
2022/03/23 00:18:32;;;;;;;33.47;18.73;;;6.90;62.40;;;;;;5011663;28;20036;-71
2022/03/23 00:20:58;;;;;;;39.38;19.92;;;6.90;62.60;;;;;;5013909;28;20061;-73
2022/03/23 00:23:24;;;;;;;32.22;19.83;;;6.80;62.40;;;;;;4998305;28;20444;-73
2022/03/23 00:25:50;;;;;;;33.92;20.50;;;6.80;62.60;;;;;;5014120;28;20056;-72
2022/03/23 00:28:16;;;;;;;30.30;17.83;;;6.80;62.60;;;;;;5015975;28;20531;-72
2022/03/23 00:30:43;;;;;;;35.00;20.55;;;6.70;62.70;;;;;;5019320;28;20091;-72
2022/03/23 00:33:08;;;;;;;30.95;19.38;;;6.70;62.90;;;;;;5011844;28;20046;-73
2022/03/23 00:35:34;;;;;;;36.65;19.45;;;6.60;63.20;;;;;;5014505;28;20026;-74
2022/03/23 00:38:00;;;;;;;36.25;21.50;;;6.60;62.80;;;;;;5013688;28;20037;-75
2022/03/23 00:40:28;;;;;;;35.17;21.02;;;6.60;62.90;;;;;;5027323;28;20025;-72
2022/03/23 00:42:56;;;;;;;38.95;22.45;;;6.50;63.30;;;;;;5013295;28;20046;-72
2022/03/23 00:45:24;;;;;;;36.58;22.35;;;6.40;63.60;;;;;;5009579;28;20046;-74
2022/03/23 00:47:50;;;;;;;39.38;21.70;;;6.40;63.50;;;;;;4993583;28;20096;-73
2022/03/23 00:50:17;;;;;;;33.42;21.55;;;6.30;64.00;;;;;;5009534;28;20030;-73
2022/03/23 00:52:47;;;;;;;33.47;21.38;;;6.30;63.90;;;;;;5012969;28;20055;-73
2022/03/23 00:55:15;;;;;;;36.30;21.70;;;6.30;63.90;;;;;;5011123;28;20122;-76
2022/03/23 00:57:41;;;;;;;36.80;20.65;;;6.20;64.00;;;;;;5011047;28;20026;-72
2022/03/23 01:00:12;;;;;;;36.13;21.85;;;6.20;63.90;;;;;;5009988;28;20026;-72
2022/03/23 01:02:41;;;;;;;38.25;22.08;;;6.10;64.00;;;;;;5010943;28;20022;-72
2022/03/23 01:05:09;;;;;;;36.00;21.15;;;6.10;64.10;;;;;;5009325;28;20038;-73
2022/03/23 01:07:36;;;;;;;37.72;20.65;;;6.10;64.00;;;;;;5010749;28;20113;-73
2022/03/23 01:10:03;;;;;;;33.95;21.27;;;6.00;64.00;;;;;;4993937;28;20552;-76
2022/03/23 01:12:29;;;;;;;37.35;24.23;;;6.00;64.10;;;;;;5011032;28;20468;-69
2022/03/23 01:14:56;;;;;;;44.95;22.75;;;6.00;64.40;;;;;;5010201;28;20030;-69
2022/03/23 01:17:22;;;;;;;38.42;22.88;;;5.90;64.30;;;;;;5009138;28;20071;-74
2022/03/23 01:19:49;;;;;;;37.90;22.85;;;5.80;64.60;;;;;;5010033;28;20087;-73
2022/03/23 01:22:16;;;;;;;42.35;25.50;;;5.80;64.60;;;;;;5012336;28;20021;-75
2022/03/23 01:24:43;;;;;;;48.72;27.88;;;5.80;64.80;;;;;;5013548;28;20057;-73
2022/03/23 01:27:10;;;;;;;47.08;27.58;;;5.70;65.30;;;;;;5011692;28;20503;-73
2022/03/23 01:29:36;;;;;;;54.45;30.27;;;5.70;65.40;;;;;;5010717;28;20022;-74
2022/03/23 01:32:03;;;;;;;50.53;29.30;;;5.60;65.60;;;;;;5010738;28;20038;-74
2022/03/23 01:34:29;;;;;;;48.63;29.88;;;5.60;65.70;;;;;;5010638;28;20379;-74
2022/03/23 01:36:55;;;;;;;51.10;29.63;;;5.60;65.80;;;;;;5011919;28;20022;-75
2022/03/23 01:39:21;;;;;;;54.13;29.27;;;5.50;66.10;;;;;;4994361;28;20026;-73
2022/03/23 01:41:48;;;;;;;50.83;27.88;;;5.40;66.50;;;;;;5013316;28;20686;-73
2022/03/23 01:44:17;;;;;;;50.92;28.58;;;5.40;66.40;;;;;;5011528;28;20085;-72
2022/03/23 01:47:03;;;;;;;48.28;28.85;;;5.40;66.40;;;;;;5010731;28;20029;-72
2022/03/23 01:49:31;;;;;;;50.45;31.15;;;5.30;66.70;;;;;;5011583;28;20030;-74
2022/03/23 01:51:57;;;;;;;61.75;40.28;;;5.30;67.10;;;;;;5010780;28;20379;-73
2022/03/23 01:54:24;;;;;;;53.00;34.88;;;5.20;67.10;;;;;;5012001;28;20036;-73
2022/03/23 01:56:51;;;;;;;50.85;32.65;;;5.20;67.10;;;;;;5010531;28;20033;-74
2022/03/23 01:59:18;;;;;;;51.03;31.73;;;5.20;66.90;;;;;;5025986;28;20099;-74
2022/03/23 02:01:44;;;;;;;48.17;30.38;;;5.10;67.70;;;;;;5030384;28;20058;-73
2022/03/23 02:04:11;;;;;;;44.95;29.67;;;5.00;67.50;;;;;;5030210;28;20088;-74
2022/03/23 02:06:37;;;;;;;56.05;29.85;;;5.00;68.60;;;;;;5031295;28;20044;-75
2022/03/23 02:09:06;;;;;;;49.67;28.67;;;4.90;68.70;;;;;;5030142;28;20044;-74
2022/03/23 02:11:34;;;;;;;49.92;28.17;;;4.80;69.20;;;;;;5030470;28;20032;-75
2022/03/23 02:14:00;;;;;;;44.72;29.02;;;4.80;69.00;;;;;;5030033;28;20116;-75
2022/03/23 02:16:27;;;;;;;47.55;29.17;;;4.70;69.00;;;;;;5030427;28;20022;-74
2022/03/23 02:18:54;;;;;;;48.95;29.35;;;4.70;69.00;;;;;;5030195;28;20447;-74
2022/03/23 02:21:19;;;;;;;43.50;28.08;;;4.70;69.40;;;;;;5030442;28;20018;-74
2022/03/23 02:23:46;;;;;;;47.10;27.25;;;4.60;70.10;;;;;;5030310;28;20029;-71
2022/03/23 02:26:13;;;;;;;46.28;28.38;;;4.60;69.50;;;;;;5032679;28;20029;-74
2022/03/23 02:28:39;;;;;;;47.65;29.40;;;4.50;69.50;;;;;;5034253;28;20038;-74
2022/03/23 02:31:07;;;;;;;52.83;27.08;;;4.50;70.00;;;;;;5034618;28;20025;-74
2022/03/23 02:33:33;;;;;;;43.45;25.58;;;4.50;69.60;;;;;;5034001;28;20041;-74
2022/03/23 02:35:59;;;;;;;37.78;25.05;;;4.50;69.60;;;;;;5035826;28;20033;-74
2022/03/23 02:38:25;;;;;;;36.15;22.52;;;4.50;69.70;;;;;;5035112;28;20060;-73
2022/03/23 02:40:51;;;;;;;41.40;22.90;;;4.50;69.50;;;;;;5035287;28;20099;-73
2022/03/23 02:43:18;;;;;;;41.15;23.50;;;4.50;69.40;;;;;;5034627;28;20064;-73
2022/03/23 02:45:44;;;;;;;39.33;24.50;;;4.50;69.60;;;;;;5033903;28;20030;-74
2022/03/23 02:48:10;;;;;;;38.13;23.30;;;4.50;69.50;;;;;;5035218;28;20029;-73
2022/03/23 02:50:36;;;;;;;38.45;23.13;;;4.40;69.60;;;;;;5034808;28;20148;-73
2022/03/23 03:01:52;;;;;;;39.72;23.58;;;4.30;69.50;;;;;;5033988;28;20037;-74
2022/03/23 03:04:19;;;;;;;43.38;25.00;;;4.30;69.80;;;;;;5033972;28;20116;-74
2022/03/23 03:06:46;;;;;;;39.63;25.58;;;4.30;69.90;;;;;;5033392;28;20029;-74
2022/03/23 03:09:15;;;;;;;44.50;25.88;;;4.30;70.10;;;;;;5034424;28;20053;-75
2022/03/23 03:11:45;;;;;;;42.25;23.95;;;4.30;70.10;;;;;;5033508;28;20040;-76
2022/03/23 03:14:12;;;;;;;40.17;23.50;;;4.30;70.00;;;;;;5033888;28;20029;-74
2022/03/23 03:16:38;;;;;;;39.30;22.17;;;4.20;69.80;;;;;;5034392;28;20026;-74
2022/03/23 03:19:06;;;;;;;42.53;23.88;;;4.10;71.00;;;;;;5033774;28;20021;-75
2022/03/23 03:21:32;;;;;;;45.42;26.20;;;4.10;70.80;;;;;;5033654;28;20026;-74
2022/03/23 03:23:58;;;;;;;43.95;27.23;;;4.00;70.60;;;;;;5033753;28;20072;-72
2022/03/23 03:26:24;;;;;;;42.22;23.20;;;3.90;70.90;;;;;;5034257;28;20029;-73
2022/03/23 03:28:50;;;;;;;45.13;25.50;;;3.90;70.80;;;;;;5034283;28;20494;-75
2022/03/23 03:31:17;;;;;;;49.88;29.23;;;3.80;70.80;;;;;;5033513;28;20025;-74
2022/03/23 03:33:44;;;;;;;46.58;25.92;;;3.90;70.70;;;;;;5031438;28;20060;-74
2022/03/23 03:36:11;;;;;;;90.47;46.55;;;4.00;70.70;;;;;;5022614;28;20030;-73
2022/03/23 03:38:37;;;;;;;85.55;49.92;;;4.00;70.30;;;;;;5033135;28;20017;-73
2022/03/23 03:41:04;;;;;;;61.03;35.92;;;3.90;70.30;;;;;;5032060;28;20120;-74
2022/03/23 03:43:31;;;;;;;60.15;35.55;;;3.90;70.50;;;;;;5032369;28;20562;-74
2022/03/23 03:45:59;;;;;;;58.63;33.55;;;3.90;70.40;;;;;;5034221;28;20030;-72
2022/03/23 03:48:25;;;;;;;60.83;34.35;;;3.90;70.50;;;;;;5033895;28;20096;-73
2022/03/23 03:50:51;;;;;;;56.25;31.98;;;3.90;70.60;;;;;;5033172;28;20496;-74
2022/03/23 03:53:17;;;;;;;61.22;35.00;;;3.80;70.80;;;;;;5032499;28;20391;-74
2022/03/23 03:55:43;;;;;;;50.60;33.55;;;3.80;71.00;;;;;;5033583;28;20021;-74
2022/03/23 03:58:10;;;;;;;54.33;33.53;;;3.80;71.30;;;;;;5033529;28;20022;-73
2022/03/23 04:00:36;;;;;;;58.20;32.35;;;3.80;71.50;;;;;;5034145;28;20469;-72
2022/03/23 04:03:03;;;;;;;56.97;33.20;;;3.80;71.60;;;;;;5033669;28;20060;-72
2022/03/23 04:05:30;;;;;;;56.30;34.03;;;3.80;71.90;;;;;;5033177;28;20029;-73
2022/03/23 04:07:56;;;;;;;55.97;34.22;;;3.70;71.80;;;;;;5033445;28;20030;-72
2022/03/23 04:10:23;;;;;;;130.52;76.43;;;3.70;72.10;;;;;;5033261;28;20025;-74
2022/03/23 04:12:49;;;;;;;112.30;63.33;;;3.70;72.10;;;;;;5033101;28;20466;-75
2022/03/23 04:15:16;;;;;;;103.93;51.90;;;3.60;72.30;;;;;;5031201;28;20025;-73
2022/03/23 04:17:43;;;;;;;62.20;38.92;;;3.60;72.50;;;;;;5018622;28;20029;-73
2022/03/23 04:20:09;;;;;;;62.67;36.40;;;3.60;72.70;;;;;;5032570;28;20021;-73
2022/03/23 04:22:38;;;;;;;70.78;39.47;;;3.50;72.80;;;;;;5033039;28;20029;-74
2022/03/23 04:25:10;;;;;;;78.40;44.70;;;3.50;72.90;;;;;;5031632;28;20087;-73
2022/03/23 04:27:48;;;;;;;87.28;48.17;;;3.50;73.20;;;;;;5032077;28;20060;-74
2022/03/23 04:30:16;;;;;;;94.72;52.20;;;3.50;76.00;;;;;;5038335;28;20052;-74
2022/03/23 04:32:43;;;;;;;96.07;51.42;;;3.60;77.60;;;;;;5031369;28;20411;-73
2022/03/23 04:35:09;;;;;;;98.00;49.97;;;3.50;77.30;;;;;;5031763;28;20116;-72
2022/03/23 04:37:35;;;;;;;205.20;94.45;;;3.40;76.60;;;;;;5032562;28;20524;-73
2022/03/23 04:40:02;;;;;;;121.88;59.45;;;3.40;77.40;;;;;;5032689;28;20057;-73
2022/03/23 04:42:28;;;;;;;154.90;74.63;;;3.40;78.10;;;;;;5032499;28;20045;-74
2022/03/23 04:44:54;;;;;;;134.63;64.65;;;3.40;77.90;;;;;;5031866;28;20487;-71
2022/03/23 04:47:20;;;;;;;130.45;66.32;;;3.30;78.30;;;;;;5032956;28;20037;-73
2022/03/23 04:49:46;;;;;;;274.88;129.65;;;3.20;78.10;;;;;;5031833;28;20033;-74
2022/03/23 04:52:13;;;;;;;184.90;90.13;;;3.20;78.90;;;;;;5032265;28;20418;-75
2022/03/23 04:54:39;;;;;;;157.85;78.03;;;3.40;79.10;;;;;;5031745;28;20033;-75
2022/03/23 04:57:05;;;;;;;132.07;68.65;;;3.50;79.30;;;;;;5031154;28;20025;-74
2022/03/23 04:59:31;;;;;;;135.75;63.90;;;3.70;78.70;;;;;;5032344;28;20066;-75
2022/03/23 05:01:57;;;;;;;153.27;73.90;;;4.00;78.20;;;;;;5032205;28;20029;-75
2022/03/23 05:04:23;;;;;;;216.43;114.18;;;4.30;77.40;;;;;;5030589;28;20341;-75
2022/03/23 05:06:49;;;;;;;170.10;85.47;;;4.60;76.30;;;;;;5032006;28;20527;-76
2022/03/23 05:09:15;;;;;;;202.68;105.25;;;5.00;76.10;;;;;;5032015;28;20022;-76
2022/03/23 05:11:41;;;;;;;130.70;63.70;;;5.00;74.40;;;;;;5031766;28;20017;-74
2022/03/23 05:14:07;;;;;;;168.82;84.75;;;5.50;73.60;;;;;;5013887;28;20084;-74
2022/03/23 05:16:33;;;;;;;164.85;82.72;;;6.00;72.70;;;;;;5031415;28;20025;-73
2022/03/23 05:18:59;;;;;;;107.80;62.10;;;6.50;71.70;;;;;;5028493;28;20038;-75
2022/03/23 05:21:25;;;;;;;127.97;70.22;;;6.90;70.10;;;;;;5014170;28;20028;-75
2022/03/23 05:23:51;;;;;;;132.95;71.35;;;7.30;69.90;;;;;;5031441;28;20057;-74
2022/03/23 05:26:17;;;;;;;112.47;66.35;;;7.50;68.20;;;;;;5030613;28;20036;-73
2022/03/23 05:28:43;;;;;;;122.97;68.75;;;7.90;67.80;;;;;;5032012;28;20068;-69
2022/03/23 05:31:09;;;;;;;128.20;72.10;;;8.40;66.40;;;;;;5030428;28;20112;-72
2022/03/23 05:33:36;;;;;;;124.90;68.18;;;8.80;66.20;;;;;;5031225;28;20108;-74
2022/03/23 05:36:01;;;;;;;107.95;62.63;;;9.10;65.90;;;;;;5032025;28;20017;-73
2022/03/23 05:38:28;;;;;;;130.30;68.30;;;9.10;64.90;;;;;;5031650;28;20040;-74
2022/03/23 05:40:54;;;;;;;103.05;58.67;;;9.20;65.00;;;;;;5014112;28;20025;-73
2022/03/23 05:43:20;;;;;;;90.97;56.95;;;9.60;64.80;;;;;;5032239;28;20138;-72
2022/03/23 05:45:46;;;;;;;98.57;57.65;;;9.90;64.00;;;;;;5031922;28;20506;-72
2022/03/23 05:48:12;;;;;;;92.15;56.92;;;10.10;63.60;;;;;;5031120;28;20060;-74
2022/03/23 05:50:38;;;;;;;90.05;56.65;;;10.00;62.60;;;;;;5031405;28;20025;-71
2022/03/23 05:53:04;;;;;;;93.65;60.67;;;10.40;61.90;;;;;;5030315;28;20468;-70
2022/03/23 05:55:30;;;;;;;85.40;54.05;;;9.60;63.30;;;;;;5031085;28;20065;-72
2022/03/23 05:57:56;;;;;;;98.13;56.40;;;9.10;63.60;;;;;;5030847;28;20418;-73
2022/03/23 06:00:22;;;;;;;96.93;59.53;;;8.50;65.20;;;;;;5032586;28;20033;-73
2022/03/23 06:02:48;;;;;;;116.05;65.13;;;8.50;65.90;;;;;;5034487;28;20380;-71
2022/03/23 06:05:14;;;;;;;99.13;62.17;;;8.60;66.00;;;;;;5035431;28;20042;-73
2022/03/23 06:07:40;;;;;;;95.80;56.33;;;8.60;65.90;;;;;;5035428;28;20025;-74
2022/03/23 06:10:07;;;;;;;81.93;50.40;;;8.30;66.50;;;;;;5035604;28;20104;-76
2022/03/23 06:12:34;;;;;;;66.03;42.92;;;8.50;65.70;;;;;;5033825;28;20104;-75
2022/03/23 06:15:00;;;;;;;63.88;39.50;;;8.70;65.20;;;;;;5035084;28;20033;-74
2022/03/23 06:17:26;;;;;;;62.53;38.60;;;8.90;63.80;;;;;;5034549;28;20039;-73
2022/03/23 06:19:52;;;;;;;48.00;30.42;;;8.90;62.80;;;;;;5016983;28;20434;-71
2022/03/23 06:22:18;;;;;;;44.95;29.65;;;8.90;62.10;;;;;;5032970;28;20029;-72
2022/03/23 06:24:44;;;;;;;51.30;30.95;;;9.00;62.40;;;;;;5032707;28;20475;-74
2022/03/23 06:27:10;;;;;;;49.85;29.13;;;9.00;62.10;;;;;;5034847;28;20037;-73
2022/03/23 06:29:39;;;;;;;40.70;28.08;;;9.00;63.00;;;;;;5034759;28;20079;-75
2022/03/23 06:32:05;;;;;;;42.75;27.70;;;9.10;62.90;;;;;;5033788;28;20029;-75
2022/03/23 06:34:31;;;;;;;51.70;30.92;;;9.10;62.30;;;;;;5034991;28;20596;-74
2022/03/23 06:36:58;;;;;;;48.72;30.30;;;9.10;63.00;;;;;;5034684;28;20045;-75
2022/03/23 06:39:23;;;;;;;59.65;33.25;;;9.30;63.30;;;;;;5034579;28;20528;-74
2022/03/23 06:41:49;;;;;;;53.33;35.28;;;9.30;63.30;;;;;;5034285;28;20096;-74
2022/03/23 06:44:17;;;;;;;49.67;32.35;;;9.30;64.00;;;;;;5033802;28;20049;-76
2022/03/23 06:46:43;;;;;;;48.45;30.83;;;9.30;62.90;;;;;;5033584;28;20025;-74
2022/03/23 06:49:10;;;;;;;51.22;32.08;;;9.40;63.40;;;;;;5034926;28;20022;-74
2022/03/23 06:51:36;;;;;;;47.08;28.58;;;9.60;63.00;;;;;;5017410;28;20113;-74
2022/03/23 06:54:01;;;;;;;41.80;26.20;;;9.60;62.90;;;;;;5033624;28;20029;-74
2022/03/23 06:56:27;;;;;;;41.42;26.17;;;9.60;63.20;;;;;;5034810;28;20112;-75
2022/03/23 06:58:53;;;;;;;44.05;24.65;;;9.70;63.10;;;;;;5017840;28;20122;-74
2022/03/23 07:01:19;;;;;;;33.67;22.23;;;10.00;62.60;;;;;;5034082;28;20065;-75
2022/03/23 07:03:45;;;;;;;33.60;20.27;;;10.00;62.50;;;;;;5032878;28;20029;-73
2022/03/23 07:06:11;;;;;;;35.13;21.90;;;10.00;62.30;;;;;;5036324;28;20030;-73
2022/03/23 07:11:21;;;;;;;32.35;17.65;;;10.20;62.40;;;;;;5032486;28;20026;-75
2022/03/23 07:13:47;;;;;;;30.23;18.00;;;10.40;61.80;;;;;;5033777;28;20034;-75
2022/03/23 07:16:13;;;;;;;27.27;16.27;;;10.40;61.90;;;;;;5033964;28;20034;-74
2022/03/23 07:18:39;;;;;;;27.25;16.13;;;10.50;61.30;;;;;;5031020;28;20520;-75
2022/03/23 07:21:05;;;;;;;28.05;15.00;;;10.70;61.00;;;;;;5029535;28;20025;-74
2022/03/23 07:23:32;;;;;;;25.00;15.48;;;10.90;60.90;;;;;;5030882;28;20360;-72
2022/03/23 07:25:57;;;;;;;27.75;16.45;;;11.10;59.50;;;;;;5032720;28;20394;-73
2022/03/23 07:28:23;;;;;;;24.67;15.63;;;11.00;60.40;;;;;;5033385;28;20029;-74
2022/03/23 07:30:50;;;;;;;27.40;15.48;;;11.30;60.00;;;;;;5030084;28;20054;-74
2022/03/23 07:33:16;;;;;;;27.45;17.08;;;11.60;60.70;;;;;;5030433;28;20018;-73
2022/03/23 07:35:42;;;;;;;23.38;13.50;;;11.80;60.90;;;;;;5032444;28;20086;-74
2022/03/23 07:38:07;;;;;;;24.88;14.52;;;12.00;59.50;;;;;;5031968;28;20416;-74
2022/03/23 07:40:36;;;;;;;25.23;13.20;;;12.10;58.30;;;;;;5031703;28;20028;-75
2022/03/23 07:43:02;;;;;;;26.58;14.05;;;12.10;56.80;;;;;;5014032;28;20104;-73
2022/03/23 07:45:32;;;;;;;23.00;13.65;;;12.40;58.50;;;;;;5029264;28;20029;-75
2022/03/23 07:48:02;;;;;;;22.52;13.00;;;12.50;57.40;;;;;;5032192;28;20681;-74
2022/03/23 07:50:28;;;;;;;20.35;12.85;;;12.80;58.00;;;;;;5033326;28;20542;-75
2022/03/23 07:52:54;;;;;;;24.50;12.68;;;12.60;57.20;;;;;;5032042;28;20040;-73
2022/03/23 07:55:21;;;;;;;25.20;12.25;;;12.70;54.40;;;;;;5030487;28;20060;-74
2022/03/23 07:57:47;;;;;;;18.88;12.55;;;12.70;55.60;;;;;;5027711;28;20468;-72
2022/03/23 08:00:13;;;;;;;24.52;12.07;;;12.80;55.40;;;;;;5029652;28;20021;-75
2022/03/23 08:02:40;;;;;;;22.45;13.07;;;12.90;53.80;;;;;;5032030;28;20040;-73
2022/03/23 08:05:08;;;;;;;21.58;11.43;;;13.00;56.80;;;;;;5032332;28;20064;-74
2022/03/23 08:07:34;;;;;;;25.92;13.88;;;13.10;54.80;;;;;;5031588;28;20029;-69
2022/03/23 08:10:00;;;;;;;21.73;13.38;;;13.00;54.70;;;;;;5031801;28;20022;-73
2022/03/23 08:12:26;;;;;;;21.15;12.82;;;13.10;54.90;;;;;;5029145;28;20510;-73
2022/03/23 08:14:52;;;;;;;23.63;13.77;;;13.20;55.70;;;;;;5028570;28;20108;-73
2022/03/23 08:17:19;;;;;;;25.08;14.32;;;13.10;54.20;;;;;;5032123;28;20029;-73
2022/03/23 08:20:32;;;;;;;22.10;13.07;;;13.20;54.30;;;;;;5030206;28;20021;-73
2022/03/23 08:22:31;;;;;;;26.50;13.93;;;13.40;56.10;;;;;;5015794;28;20030;-73
2022/03/23 08:24:57;;;;;;;25.75;15.50;;;13.40;54.90;;;;;;5021544;28;20037;-72
2022/03/23 08:27:23;;;;;;;27.15;15.07;;;13.60;53.20;;;;;;5031893;28;20025;-72
2022/03/23 08:29:48;;;;;;;26.15;14.60;;;13.50;54.80;;;;;;5030788;28;20025;-73
2022/03/23 08:32:15;;;;;;;21.13;13.85;;;13.70;54.40;;;;;;5019511;28;20450;-71
2022/03/23 08:34:41;;;;;;;29.73;15.30;;;13.70;53.20;;;;;;5025650;28;20021;-72
2022/03/23 08:37:10;;;;;;;27.58;15.60;;;13.80;54.40;;;;;;5018051;28;20109;-73
2022/03/23 08:39:36;;;;;;;24.98;13.93;;;13.80;53.10;;;;;;5013827;28;20020;-72
2022/03/23 08:42:02;;;;;;;29.20;15.73;;;13.70;53.90;;;;;;5019826;28;20030;-72
2022/03/23 08:44:28;;;;;;;26.00;15.18;;;13.70;54.40;;;;;;5018750;28;20053;-72
2022/03/23 08:46:54;;;;;;;22.50;14.68;;;13.70;54.00;;;;;;5029591;28;20032;-73
2022/03/23 08:49:20;;;;;;;20.58;13.55;;;14.00;54.10;;;;;;5016583;28;20036;-72
2022/03/23 08:51:46;;;;;;;24.70;14.73;;;13.80;51.80;;;;;;5009950;28;20029;-72
2022/03/23 08:54:12;;;;;;;23.67;14.38;;;14.00;53.00;;;;;;5014368;28;20021;-72
2022/03/23 08:56:38;;;;;;;19.52;13.48;;;14.00;52.10;;;;;;5017222;28;20379;-75
2022/03/23 08:59:05;;;;;;;25.55;13.25;;;14.20;54.90;;;;;;5029527;28;20529;-72
2022/03/23 09:01:31;;;;;;;21.25;13.10;;;14.20;53.60;;;;;;5038061;28;20033;-72
2022/03/23 09:04:01;;;;;;;23.10;14.02;;;14.30;54.40;;;;;;5030639;28;20029;-74
2022/03/23 09:06:27;;;;;;;22.70;14.68;;;14.50;54.10;;;;;;5030592;28;20018;-74
2022/03/23 09:08:53;;;;;;;24.80;13.13;;;14.40;52.00;;;;;;5030346;28;20518;-73
2022/03/23 09:11:19;;;;;;;26.88;13.52;;;14.30;51.40;;;;;;5029389;28;20270;-73
2022/03/23 09:13:47;;;;;;;24.67;12.43;;;14.40;53.10;;;;;;5028825;28;20046;-70
2022/03/23 09:16:12;;;;;;;25.58;13.32;;;14.40;53.20;;;;;;5029087;28;20041;-74
2022/03/23 09:18:38;;;;;;;22.77;14.88;;;14.80;54.90;;;;;;5030837;28;20025;-72
2022/03/23 09:21:04;;;;;;;25.08;12.93;;;14.80;53.70;;;;;;5030874;28;20032;-76
2022/03/23 09:23:30;;;;;;;26.75;13.63;;;15.10;54.70;;;;;;5030752;28;20366;-74
2022/03/23 09:25:56;;;;;;;23.63;13.98;;;15.00;52.40;;;;;;5029805;28;20045;-75
2022/03/23 09:28:22;;;;;;;28.60;14.40;;;14.70;51.40;;;;;;5014276;28;20045;-74
2022/03/23 09:30:48;;;;;;;25.92;14.52;;;14.70;53.40;;;;;;5023288;28;20095;-72
2022/03/23 09:33:15;;;;;;;25.52;14.52;;;14.30;52.90;;;;;;5017362;28;20567;-72
2022/03/23 09:35:41;;;;;;;22.35;13.13;;;14.60;52.60;;;;;;5023478;28;20907;-73
2022/03/23 09:38:06;;;;;;;23.55;14.35;;;14.60;52.10;;;;;;5019086;28;20045;-73
2022/03/23 09:40:32;;;;;;;23.63;13.70;;;14.40;51.40;;;;;;5013050;28;20028;-69
2022/03/23 09:43:01;;;;;;;26.50;14.77;;;14.60;53.40;;;;;;5021153;28;20049;-73
2022/03/23 09:48:09;;;;;;;22.27;14.60;;;14.90;52.50;;;;;;5027658;28;20378;-72
2022/03/23 09:50:36;;;;;;;22.95;13.05;;;14.70;52.10;;;;;;5022359;28;20030;-69
2022/03/23 09:53:03;;;;;;;26.77;15.00;;;14.70;51.00;;;;;;5010934;28;20077;-73
2022/03/23 09:55:30;;;;;;;26.65;16.05;;;14.90;52.60;;;;;;5026238;28;20075;-73
2022/03/23 09:58:01;;;;;;;27.13;13.50;;;15.20;53.60;;;;;;5031261;28;20034;-74
2022/03/23 10:00:37;;;;;;;20.88;12.43;;;15.10;50.00;;;;;;5027174;28;20064;-75
2022/03/23 10:03:11;;;;;;;22.88;14.40;;;15.20;53.80;;;;;;5030066;28;20021;-71
2022/03/23 10:06:15;;;;;;;26.33;14.45;;;15.40;51.50;;;;;;5016798;28;20038;-73
2022/03/23 10:08:59;;;;;;;20.42;13.95;;;15.60;51.50;;;;;;5029109;28;20026;-74
2022/03/23 10:12:02;;;;;;;24.70;14.85;;;15.50;52.10;;;;;;5027727;28;20104;-74
2022/03/23 10:14:46;;;;;;;;;;;15.50;53.30;;;;;;5030692;28;20029;-73
2022/03/23 10:17:50;;;;;;;24.25;14.90;;;15.50;52.00;;;;;;5030432;28;19956;-72
2022/03/23 10:20:16;;;;;;;25.02;14.43;;;15.40;50.90;;;;;;5022533;28;20029;-73
2022/03/23 10:22:50;;;;;;;24.65;16.42;;;15.50;51.50;;;;;;5024510;28;20037;-72
2022/03/23 10:25:18;;;;;;;27.75;15.35;;;15.60;52.20;;;;;;5030923;28;20037;-72
2022/03/23 10:27:45;;;;;;;31.50;14.70;;;15.50;50.50;;;;;;5029011;28;20029;-71
2022/03/23 10:30:13;;;;;;;24.60;15.93;;;15.60;50.80;;;;;;5029447;28;20124;-71
2022/03/23 10:32:43;;;;;;;28.35;16.85;;;15.40;51.10;;;;;;5030449;28;20060;-71
2022/03/23 10:35:13;;;;;;;27.60;15.30;;;15.70;50.00;;;;;;5030700;28;20030;-71
2022/03/23 10:37:39;;;;;;;29.88;15.65;;;15.80;51.50;;;;;;5024993;28;20049;-70
2022/03/23 10:40:09;;;;;;;30.25;15.85;;;15.90;49.80;;;;;;5014962;28;20026;-70
2022/03/23 10:42:40;;;;;;;25.77;15.65;;;15.90;52.00;;;;;;5025715;28;20593;-71
2022/03/23 10:45:12;;;;;;;24.30;16.52;;;15.90;49.90;;;;;;5029171;28;20077;-72
2022/03/23 10:47:40;;;;;;;27.25;16.20;;;16.00;50.40;;;;;;5020686;28;20029;-72
2022/03/23 10:50:24;;;;;;;23.95;15.98;;;16.00;51.50;;;;;;5028128;28;20580;-73
2022/03/23 10:53:00;;;;;;;30.25;15.95;;;15.90;50.60;;;;;;5032895;28;20675;-71
2022/03/23 10:55:48;;;;;;;29.00;16.15;;;15.90;49.80;;;;;;5024131;28;20049;-72
2022/03/23 10:58:25;;;;;;;26.75;15.35;;;15.90;50.80;;;;;;5031738;28;20025;-74
2022/03/23 11:00:56;;;;;;;25.20;15.07;;;16.00;49.30;;;;;;5033081;28;20527;-73
2022/03/23 11:03:47;;;;;;;27.60;15.98;;;16.30;50.10;;;;;;5033706;28;20021;-73
2022/03/23 11:06:17;;;;;;;25.52;15.80;;;16.30;50.40;;;;;;5034327;28;20398;-71
2022/03/23 11:08:46;;;;;;;26.25;16.27;;;16.30;52.00;;;;;;5033956;28;20030;-69
2022/03/23 11:16:52;;;;;;;25.75;16.25;;;16.40;52.20;;;;;;5033168;28;20040;-69
2022/03/23 11:19:19;;;;;;;25.50;16.27;;;16.70;52.00;;;;;;5031015;28;20022;-73
2022/03/23 11:22:05;;;;;;;26.42;15.18;;;16.80;51.80;;;;;;5032958;28;20026;-73
2022/03/23 11:24:36;;;;;;;25.02;15.25;;;16.90;51.30;;;;;;5031264;28;20022;-73
2022/03/23 11:27:06;;;;;;;26.10;15.57;;;16.80;49.20;;;;;;5032898;28;20029;-73
2022/03/23 11:29:34;;;;;;;33.38;15.90;;;16.90;50.40;;;;;;5012483;28;20018;-73
2022/03/23 11:32:07;;;;;;;26.52;15.43;;;17.00;49.50;;;;;;5019317;28;20501;-73
2022/03/23 11:34:36;;;;;;;25.42;14.80;;;17.00;49.80;;;;;;5017085;28;20054;-72
2022/03/23 11:37:04;;;;;;;34.85;13.75;;;16.90;49.00;;;;;;5014236;28;20026;-71
2022/03/23 11:39:31;;;;;;;24.73;15.65;;;16.80;48.60;;;;;;5017651;28;20109;-72
2022/03/23 11:42:03;;;;;;;25.33;15.55;;;16.80;49.80;;;;;;5032614;28;20041;-73
2022/03/23 11:44:29;;;;;;;26.92;13.50;;;16.90;50.10;;;;;;5032919;28;20046;-73
2022/03/23 11:47:02;;;;;;;26.45;13.30;;;17.20;49.70;;;;;;5019264;28;20033;-71
2022/03/23 11:49:46;;;;;;;27.60;13.95;;;17.20;48.80;;;;;;5011049;28;20108;-72
2022/03/23 11:52:33;;;;;;;27.63;14.88;;;17.20;50.00;;;;;;5012858;28;20045;-71
2022/03/23 11:55:39;;;;;;;19.05;7.32;;;17.10;47.40;;;;;;5013188;28;20033;-72
2022/03/23 11:58:16;;;;;;;24.55;10.63;;;17.10;46.20;;;;;;5017429;28;20026;-70
2022/03/23 12:00:51;;;;;;;21.65;13.00;;;17.20;49.70;;;;;;5020472;28;20498;-73
2022/03/23 12:03:45;;;;;;;19.67;9.02;;;17.30;50.10;;;;;;5030984;28;20037;-74
2022/03/23 12:06:13;;;;;;;19.33;9.75;;;17.30;46.90;;;;;;5009704;28;20037;-73
2022/03/23 12:08:59;;;;;;;20.38;11.07;;;17.20;46.70;;;;;;5031207;28;20037;-72
2022/03/23 12:11:45;;;;;;;21.67;11.70;;;17.00;46.00;;;;;;5022423;28;20052;-71
2022/03/23 12:14:30;;;;;;;23.05;11.95;;;17.00;46.70;;;;;;5029045;28;20387;-73
2022/03/23 12:16:56;;;;;;;29.60;11.52;;;17.20;47.20;;;;;;5030164;28;20030;-73
2022/03/23 12:19:30;;;;;;;24.73;11.00;;;17.20;48.60;;;;;;5032069;28;20031;-71
2022/03/23 12:22:05;;;;;;;23.40;10.90;;;17.30;49.80;;;;;;5012022;28;20029;-73
2022/03/23 12:25:08;;;;;;;22.80;9.07;;;17.40;47.00;;;;;;5031377;28;20542;-70
2022/03/23 12:27:43;;;;;;;16.58;9.48;;;17.40;49.90;;;;;;5029670;28;20076;-73
2022/03/23 12:30:31;;;;;;;26.90;11.25;;;17.30;46.80;;;;;;5022192;28;20052;-73
2022/03/23 12:33:00;;;;;;;16.80;8.20;;;17.50;49.40;;;;;;5030846;28;20033;-74
2022/03/23 12:35:30;;;;;;;18.98;8.63;;;17.50;47.10;;;;;;5031275;28;20027;-73
2022/03/23 12:38:02;;;;;;;20.95;9.07;;;17.40;45.50;;;;;;5028259;28;20175;-71
2022/03/23 12:40:42;;;;;;;20.40;9.27;;;17.30;45.00;;;;;;5027778;28;20533;-71
2022/03/23 12:43:09;;;;;;;15.50;7.88;;;17.20;45.70;;;;;;5027708;28;20166;-71
2022/03/23 12:45:39;;;;;;;16.65;8.13;;;17.30;46.60;;;;;;5027423;28;20459;-72
2022/03/23 12:59:17;;;;;;;21.77;9.90;;;17.50;47.50;;;;;;5028245;28;20021;-72
2022/03/23 13:01:44;;;;;;;16.92;9.82;;;17.50;45.50;;;;;;5011964;28;20557;-73
2022/03/23 13:04:42;;;;;;;21.90;10.02;;;17.50;45.80;;;;;;5022129;28;20689;-73
2022/03/23 13:07:27;;;;;;;20.88;9.93;;;17.50;46.00;;;;;;5027574;28;20052;-73
2022/03/23 13:10:04;;;;;;;19.48;9.90;;;17.50;45.50;;;;;;5031251;28;20025;-68
2022/03/23 13:12:31;;;;;;;15.18;8.88;;;17.50;45.50;;;;;;5030424;28;20386;-74